Siloam, North Carolina
Current Conditions -  °F | °C
As of 6:55 PM on Sunday 23 Nov 2014 (Local Time) from KMWK Reporting Station
Moderate Rain Moderate Rain  
Wind Chill: 44°   Ceiling: 1500
Heat Index: 50°   Visibility: 4mi
Dew Point: 47°   Wind: 16mph
Humidity: 92%   Direction: 70°ENE
Pressure: 29.87"   Gusts: 22mph
Location:  36.29°N, 80.56°W
Report Text: KMWK 232355Z AUTO 07014G19KT 4SM RA SCT005 BKN015 OVC021 10/09 A2987 RMK AO2 P0019 60043 T00980085 10105 20063
Loading
Personal Weather Stations






























Interactive Weather Map New forecast layout! Learn more

10-Day Weather Forecast

Advertisements
Track Severe Weather on mobile